Time;durP1;ratioP1;P1;durP2;ratioP2;P2;SDS_P1;SDS_P2;PMS_P1;PMS_P2;Temp;Humidity;BMP_temperature;BMP_pressure;BME280_temperature;BME280_humidity;BME280_pressure;Samples;Min_cycle;Max_cycle;Signal;HPM_P1;HPM_P2
2022/04/16 00:01:52;;;;;;;;;;;;;;;;;;5036158;28;20149;-84
2022/04/16 00:04:18;;;;;;;;;;;;;;;;;;5049036;28;19916;-83
2022/04/16 00:06:45;;;;;;;;;;;;;;;;;;5050319;28;19955;-84
2022/04/16 00:09:11;;;;;;;;;;;;;;;;;;5047118;28;19956;-84
2022/04/16 00:11:38;;;;;;;;;;;;;;;;;;5047848;28;20355;-84
2022/04/16 00:14:04;;;;;;;;;;;;;;;;;;5054601;28;20011;-84
2022/04/16 00:16:31;;;;;;;;;;;;;;;;;;5074467;28;19917;-81
2022/04/16 00:18:57;;;;;;;;;;;;;;;;;;5052797;28;19936;-84
2022/04/16 00:21:23;;;;;;;;;;;;;;;;;;5051558;28;19955;-84
2022/04/16 00:23:49;;;;;;;;;;;;;;;;;;5048663;28;19971;-84
2022/04/16 00:26:16;;;;;;;;;;;;;;;;;;5057526;28;19967;-84
2022/04/16 00:28:42;;;;;;;;;;;;;;;;;;5055415;28;19968;-85
2022/04/16 00:31:08;;;;;;;;;;;;;;;;;;5052399;28;19986;-84
2022/04/16 00:33:34;;;;;;;;;;;;;;;;;;5042157;28;20128;-84
2022/04/16 00:36:01;;;;;;;;;;;;;;;;;;5047670;28;19952;-84
2022/04/16 00:38:27;;;;;;;;;;;;;;;;;;5064455;28;20054;-83
2022/04/16 00:40:53;;;;;;;;;;;;;;;;;;5025486;28;19955;-84
2022/04/16 00:43:19;;;;;;;;;;;;;;;;;;5060436;28;19956;-83
2022/04/16 00:45:47;;;;;;;;;;;;;;;;;;5037781;28;20326;-84
2022/04/16 00:48:13;;;;;;;;;;;;;;;;;;5056477;28;19955;-84
2022/04/16 00:50:39;;;;;;;;;;;;;;;;;;5065384;28;19953;-84
2022/04/16 00:53:05;;;;;;;;;;;;;;;;;;5068766;28;20038;-84
2022/04/16 00:55:32;;;;;;;;;;;;;;;;;;5044202;28;19948;-84
2022/04/16 00:57:58;;;;;;;;;;;;;;;;;;5068814;28;19925;-85
2022/04/16 01:00:24;;;;;;;;;;;;;;;;;;5065431;28;19955;-84
2022/04/16 01:02:51;;;;;;;;;;;;;;;;;;5030198;28;20011;-84
2022/04/16 01:05:19;;;;;;;;;;;;;;;;;;5054140;28;19948;-84
2022/04/16 01:07:46;;;;;;;;;;;;;;;;;;5049587;28;19972;-83
2022/04/16 01:10:12;;;;;;;;;;;;;;;;;;5051477;28;19955;-85
2022/04/16 01:12:38;;;;;;;;;;;;;;;;;;5052286;28;19964;-86
2022/04/16 01:15:05;;;;;;;;;;;;;;;;;;5048219;28;19941;-86
2022/04/16 01:17:31;;;;;;;;;;;;;;;;;;5061065;28;19951;-84
2022/04/16 01:19:58;;;;;;;;;;;;;;;;;;5048944;28;19955;-86
2022/04/16 01:22:24;;;;;;;;;;;;;;;;;;5044534;28;19992;-88
2022/04/16 01:24:50;;;;;;;;;;;;;;;;;;5056376;28;20501;-88
2022/04/16 01:27:17;;;;;;;;;;;;;;;;;;5045270;28;20356;-88
2022/04/16 01:29:44;;;;;;;;;;;;;;;;;;5053707;28;19936;-88
2022/04/16 01:32:10;;;;;;;;;;;;;;;;;;5045643;28;19952;-90
2022/04/16 01:34:37;;;;;;;;;;;;;;;;;;5034016;28;19964;-87
2022/04/16 01:37:04;;;;;;;;;;;;;;;;;;5056883;28;19956;-90
2022/04/16 01:39:30;;;;;;;;;;;;;;;;;;5043538;28;19952;-88
2022/04/16 01:41:57;;;;;;;;;;;;;;;;;;5033798;28;20664;-87
2022/04/16 01:44:23;;;;;;;;;;;;;;;;;;5062171;28;19940;-88
2022/04/16 01:46:49;;;;;;;;;;;;;;;;;;5048756;28;19955;-89
2022/04/16 01:49:15;;;;;;;;;;;;;;;;;;5035631;28;20363;-87
2022/04/16 01:51:42;;;;;;;;;;;;;;;;;;5060075;28;19952;-83
2022/04/16 01:54:08;;;;;;;;;;;;;;;;;;5048875;28;19952;-84
2022/04/16 01:56:34;;;;;;;;;;;;;;;;;;5042953;28;19916;-82
2022/04/16 01:59:01;;;;;;;;;;;;;;;;;;5047242;28;20380;-83
2022/04/16 02:01:28;;;;;;;;;;;;;;;;;;5043216;28;20345;-83
2022/04/16 02:03:54;;;;;;;;;;;;;;;;;;5054458;28;19967;-84
2022/04/16 02:06:20;;;;;;;;;;;;;;;;;;5046601;28;19953;-84
2022/04/16 02:08:48;;;;;;;;;;;;;;;;;;5045349;28;19960;-85
2022/04/16 02:11:14;;;;;;;;;;;;;;;;;;5044563;28;19964;-84
2022/04/16 02:13:40;;;;;;;;;;;;;;;;;;5046103;28;19948;-83
2022/04/16 02:16:07;;;;;;;;;;;;;;;;;;5058960;28;19959;-85
2022/04/16 02:18:33;;;;;;;;;;;;;;;;;;5051525;28;20711;-85
2022/04/16 02:20:59;;;;;;;;;;;;;;;;;;5060280;28;19956;-84
2022/04/16 02:23:25;;;;;;;;;;;;;;;;;;5047964;28;19975;-84
2022/04/16 02:25:53;;;;;;;;;;;;;;;;;;5053756;28;19953;-85
2022/04/16 02:28:21;;;;;;;;;;;;;;;;;;5022832;28;20442;-85
2022/04/16 02:30:47;;;;;;;;;;;;;;;;;;5067321;28;19954;-84
2022/04/16 02:33:13;;;;;;;;;;;;;;;;;;5038770;28;20332;-85
2022/04/16 02:35:40;;;;;;;;;;;;;;;;;;5048004;28;19960;-84
2022/04/16 02:38:07;;;;;;;;;;;;;;;;;;5024018;28;19956;-83
2022/04/16 02:40:33;;;;;;;;;;;;;;;;;;5051891;28;20333;-83
2022/04/16 02:43:00;;;;;;;;;;;;;;;;;;5052742;28;19944;-86
2022/04/16 02:48:11;;;;;;;;;;;;;;;;;;5044381;28;22623;-84
2022/04/16 02:50:37;;;;;;;;;;;;;;;;;;5057789;28;19979;-84
2022/04/16 02:53:03;;;;;;;;;;;;;;;;;;5068351;28;19956;-84
2022/04/16 02:55:30;;;;;;;;;;;;;;;;;;5045874;28;19990;-86
2022/04/16 02:57:56;;;;;;;;;;;;;;;;;;5045891;28;19955;-85
2022/04/16 03:00:22;;;;;;;;;;;;;;;;;;5047791;28;19991;-85
2022/04/16 03:02:48;;;;;;;;;;;;;;;;;;5034758;28;19994;-85
2022/04/16 03:05:15;;;;;;;;;;;;;;;;;;5058351;28;19982;-84
2022/04/16 03:07:41;;;;;;;;;;;;;;;;;;5050668;28;19920;-84
2022/04/16 03:10:10;;;;;;;;;;;;;;;;;;5033433;28;20458;-83
2022/04/16 03:12:36;;;;;;;;;;;;;;;;;;5047625;28;19951;-82
2022/04/16 03:17:49;;;;;;;;;;;;;;;;;;5053123;28;19956;-82
2022/04/16 03:20:15;;;;;;;;;;;;;;;;;;5052561;28;19917;-82
2022/04/16 03:22:41;;;;;;;;;;;;;;;;;;5053479;28;19948;-82
2022/04/16 03:25:08;;;;;;;;;;;;;;;;;;5056782;28;20451;-82
2022/04/16 03:27:34;;;;;;;;;;;;;;;;;;5039999;28;19925;-82
2022/04/16 03:30:01;;;;;;;;;;;;;;;;;;5057274;28;19913;-83
2022/04/16 03:32:27;;;;;;;;;;;;;;;;;;5053307;28;19953;-83
2022/04/16 03:34:53;;;;;;;;;;;;;;;;;;5045746;28;20452;-82
2022/04/16 03:37:19;;;;;;;;;;;;;;;;;;5051833;28;19913;-83
2022/04/16 03:39:46;;;;;;;;;;;;;;;;;;5045429;28;19952;-83
2022/04/16 03:42:12;;;;;;;;;;;;;;;;;;5052976;28;19959;-82
2022/04/16 03:44:38;;;;;;;;;;;;;;;;;;5045275;28;20381;-82
2022/04/16 03:47:04;;;;;;;;;;;;;;;;;;5050815;28;19975;-83
2022/04/16 03:49:30;;;;;;;;;;;;;;;;;;5058549;28;20042;-84
2022/04/16 03:51:57;;;;;;;;;;;;;;;;;;5034998;28;19917;-81
2022/04/16 03:59:59;;;;;;;;;;;;;;;;;;5050937;28;19949;-83
2022/04/16 04:02:25;;;;;;;;;;;;;;;;;;5065888;28;20534;-83
2022/04/16 04:04:51;;;;;;;;;;;;;;;;;;5042661;28;19959;-84
2022/04/16 04:07:18;;;;;;;;;;;;;;;;;;5051814;28;19954;-84
2022/04/16 04:09:44;;;;;;;;;;;;;;;;;;5041863;28;19944;-83
2022/04/16 04:12:10;;;;;;;;;;;;;;;;;;5024637;28;19913;-83
2022/04/16 04:14:36;;;;;;;;;;;;;;;;;;5051765;28;19972;-84
2022/04/16 04:17:03;;;;;;;;;;;;;;;;;;5062259;28;19917;-85
2022/04/16 04:19:29;;;;;;;;;;;;;;;;;;5036375;28;19914;-83
2022/04/16 04:21:55;;;;;;;;;;;;;;;;;;5048985;28;19967;-84
2022/04/16 04:24:21;;;;;;;;;;;;;;;;;;5044886;28;19967;-83
2022/04/16 04:26:47;;;;;;;;;;;;;;;;;;5037053;28;20336;-84
2022/04/16 04:29:13;;;;;;;;;;;;;;;;;;5064847;28;19967;-82
2022/04/16 04:31:40;;;;;;;;;;;;;;;;;;5051290;28;20356;-84
2022/04/16 04:34:06;;;;;;;;;;;;;;;;;;5072550;28;19963;-82
2022/04/16 04:36:32;;;;;;;;;;;;;;;;;;5062400;28;19916;-81
2022/04/16 04:38:58;;;;;;;;;;;;;;;;;;5059243;28;19940;-83
2022/04/16 04:41:24;;;;;;;;;;;;;;;;;;5051231;28;19956;-84
2022/04/16 04:43:51;;;;;;;;;;;;;;;;;;5045206;28;19947;-83
2022/04/16 04:46:17;;;;;;;;;;;;;;;;;;5024584;28;19917;-83
2022/04/16 04:48:43;;;;;;;;;;;;;;;;;;5048560;28;19968;-83
2022/04/16 04:51:09;;;;;;;;;;;;;;;;;;5047535;28;20070;-85
2022/04/16 04:53:35;;;;;;;;;;;;;;;;;;5052619;28;19966;-85
2022/04/16 04:56:01;;;;;;;;;;;;;;;;;;5064474;28;19948;-86
2022/04/16 04:58:28;;;;;;;;;;;;;;;;;;5069360;28;19955;-85
2022/04/16 05:00:54;;;;;;;;;;;;;;;;;;5041123;28;19952;-85
2022/04/16 05:03:20;;;;;;;;;;;;;;;;;;5055445;28;20077;-85
2022/04/16 05:05:47;;;;;;;;;;;;;;;;;;5039802;28;19948;-85
2022/04/16 05:08:13;;;;;;;;;;;;;;;;;;5048196;28;19983;-85
2022/04/16 05:10:39;;;;;;;;;;;;;;;;;;5065191;28;19949;-84
2022/04/16 05:13:05;;;;;;;;;;;;;;;;;;5070203;28;19956;-84
2022/04/16 05:15:31;;;;;;;;;;;;;;;;;;5050490;28;19992;-81
2022/04/16 05:17:58;;;;;;;;;;;;;;;;;;5036131;28;20092;-86
2022/04/16 05:20:24;;;;;;;;;;;;;;;;;;5053819;28;19952;-84
2022/04/16 05:22:50;;;;;;;;;;;;;;;;;;5053420;28;19944;-84
2022/04/16 05:25:16;;;;;;;;;;;;;;;;;;5034359;28;20541;-85
2022/04/16 05:27:42;;;;;;;;;;;;;;;;;;5030379;28;20030;-86
2022/04/16 05:30:34;;;;;;;;;;;;;;;;;;5052321;28;19966;-86
2022/04/16 05:33:02;;;;;;;;;;;;;;;;;;5048877;28;19970;-87
2022/04/16 05:35:28;;;;;;;;;;;;;;;;;;5035562;28;19967;-85
2022/04/16 05:37:54;;;;;;;;;;;;;;;;;;5052008;28;19966;-87
2022/04/16 05:40:20;;;;;;;;;;;;;;;;;;5058020;28;19920;-87
2022/04/16 05:46:37;;;;;;;;;;;;;;;;;;4933247;28;19952;-88
2022/04/16 05:49:30;;;;;;;;;;;;;;;;;;4991452;28;19937;-88
2022/04/16 05:51:56;;;;;;;;;;;;;;;;;;5042072;28;19913;-87
2022/04/16 05:54:22;;;;;;;;;;;;;;;;;;5031150;28;19936;-87
2022/04/16 05:56:48;;;;;;;;;;;;;;;;;;5053120;28;19967;-88
2022/04/16 05:59:14;;;;;;;;;;;;;;;;;;5034925;28;19949;-87
2022/04/16 06:01:41;;;;;;;;;;;;;;;;;;5040517;28;19944;-88
2022/04/16 06:04:08;;;;;;;;;;;;;;;;;;5030591;28;19960;-86
2022/04/16 06:06:34;;;;;;;;;;;;;;;;;;5028182;28;19955;-86
2022/04/16 06:09:00;;;;;;;;;;;;;;;;;;5036431;28;19964;-86
2022/04/16 06:11:28;;;;;;;;;;;;;;;;;;5025316;28;19955;-86
2022/04/16 06:13:54;;;;;;;;;;;;;;;;;;5038317;28;19948;-86
2022/04/16 06:16:20;;;;;;;;;;;;;;;;;;5040013;28;19959;-84
2022/04/16 06:18:47;;;;;;;;;;;;;;;;;;5032753;28;19956;-85
2022/04/16 06:21:13;;;;;;;;;;;;;;;;;;5019457;28;19952;-85
2022/04/16 06:23:39;;;;;;;;;;;;;;;;;;5026785;28;20014;-85
2022/04/16 06:26:05;;;;;;;;;;;;;;;;;;5031026;28;19948;-85
2022/04/16 06:28:31;;;;;;;;;;;;;;;;;;5062329;28;19937;-84
2022/04/16 06:30:57;;;;;;;;;;;;;;;;;;5027880;28;19953;-85
2022/04/16 06:33:24;;;;;;;;;;;;;;;;;;5035906;28;19955;-84
2022/04/16 06:35:51;;;;;;;;;;;;;;;;;;5026708;28;19953;-82
2022/04/16 06:38:17;;;;;;;;;;;;;;;;;;5036901;28;20001;-85
2022/04/16 06:40:43;;;;;;;;;;;;;;;;;;5026319;28;19948;-84
2022/04/16 06:43:09;;;;;;;;;;;;;;;;;;5060315;28;19957;-85
2022/04/16 06:45:35;;;;;;;;;;;;;;;;;;5050391;28;20377;-85
2022/04/16 06:48:02;;;;;;;;;;;;;;;;;;5032013;28;19960;-86
2022/04/16 06:50:28;;;;;;;;;;;;;;;;;;5027284;28;19955;-84
2022/04/16 06:52:55;;;;;;;;;;;;;;;;;;5028966;28;19956;-85
2022/04/16 06:55:21;;;;;;;;;;;;;;;;;;5029210;28;19917;-86
2022/04/16 06:57:47;;;;;;;;;;;;;;;;;;5023312;28;19949;-84
2022/04/16 07:00:13;;;;;;;;;;;;;;;;;;5037472;28;19948;-84
2022/04/16 07:02:39;;;;;;;;;;;;;;;;;;5030778;28;19956;-84
2022/04/16 07:05:06;;;;;;;;;;;;;;;;;;5033497;28;19953;-86
2022/04/16 07:07:33;;;;;;;;;;;;;;;;;;5040487;28;19971;-86
2022/04/16 07:09:59;;;;;;;;;;;;;;;;;;5034625;28;19960;-87
2022/04/16 07:12:25;;;;;;;;;;;;;;;;;;5033522;28;19945;-87
2022/04/16 07:14:51;;;;;;;;;;;;;;;;;;5028195;28;20605;-85
2022/04/16 07:17:18;;;;;;;;;;;;;;;;;;5030483;28;19964;-84
2022/04/16 07:19:44;;;;;;;;;;;;;;;;;;5016315;28;20002;-84
2022/04/16 07:22:10;;;;;;;;;;;;;;;;;;5040653;28;19943;-84
2022/04/16 07:24:42;;;;;;;;;;;;;;;;;;5027567;28;20549;-83
2022/04/16 07:27:08;;;;;;;;;;;;;;;;;;5033691;28;20411;-84
2022/04/16 07:29:34;;;;;;;;;;;;;;;;;;5024821;28;20003;-85
2022/04/16 07:32:00;;;;;;;;;;;;;;;;;;5023726;28;20338;-83
2022/04/16 07:34:27;;;;;;;;;;;;;;;;;;5023200;28;20424;-85
2022/04/16 07:36:53;;;;;;;;;;;;;;;;;;5030981;28;20401;-86
2022/04/16 07:39:19;;;;;;;;;;;;;;;;;;5034283;28;19956;-85
2022/04/16 07:41:45;;;;;;;;;;;;;;;;;;5030995;28;19949;-86
2022/04/16 07:44:11;;;;;;;;;;;;;;;;;;5026366;28;19944;-83
2022/04/16 07:46:38;;;;;;;;;;;;;;;;;;5020182;28;19960;-82
2022/04/16 07:49:04;;;;;;;;;;;;;;;;;;5025208;28;20381;-84
2022/04/16 07:51:30;;;;;;;;;;;;;;;;;;5019845;28;19950;-83
2022/04/16 07:53:57;;;;;;;;;;;;;;;;;;5024120;28;19944;-83
2022/04/16 07:56:23;;;;;;;;;;;;;;;;;;5022515;28;19953;-83
2022/04/16 07:58:50;;;;;;;;;;;;;;;;;;5017495;28;19984;-83
2022/04/16 08:01:16;;;;;;;;;;;;;;;;;;5050132;28;19937;-83
2022/04/16 08:03:42;;;;;;;;;;;;;;;;;;5053349;28;20538;-83
2022/04/16 08:06:08;;;;;;;;;;;;;;;;;;5023384;28;19937;-84
2022/04/16 08:08:35;;;;;;;;;;;;;;;;;;5020229;28;20389;-85
2022/04/16 08:11:01;;;;;;;;;;;;;;;;;;5020167;28;19955;-81
2022/04/16 08:13:27;;;;;;;;;;;;;;;;;;5024266;28;19960;-82
2022/04/16 08:15:53;;;;;;;;;;;;;;;;;;5019811;28;19960;-82
2022/04/16 08:18:19;;;;;;;;;;;;;;;;;;5020606;28;20381;-83
2022/04/16 08:20:46;;;;;;;;;;;;;;;;;;5052427;28;20005;-82
2022/04/16 08:23:13;;;;;;;;;;;;;;;;;;5019301;28;20376;-84
2022/04/16 08:28:05;;;;;;;;;;;;;;;;;;5014438;28;19960;-83
2022/04/16 08:30:31;;;;;;;;;;;;;;;;;;5048313;28;19956;-83
2022/04/16 08:32:57;;;;;;;;;;;;;;;;;;5027144;28;19957;-83
2022/04/16 08:35:24;;;;;;;;;;;;;;;;;;5022049;28;19955;-83
2022/04/16 08:37:50;;;;;;;;;;;;;;;;;;5021937;28;19952;-83
2022/04/16 08:40:16;;;;;;;;;;;;;;;;;;5025751;28;20419;-84
2022/04/16 08:42:42;;;;;;;;;;;;;;;;;;5016455;28;19972;-83
2022/04/16 08:45:08;;;;;;;;;;;;;;;;;;5045169;28;19967;-83
2022/04/16 08:47:34;;;;;;;;;;;;;;;;;;5020015;28;19945;-83
2022/04/16 08:50:01;;;;;;;;;;;;;;;;;;5050518;28;19965;-84
2022/04/16 08:52:27;;;;;;;;;;;;;;;;;;5032908;28;19972;-84
2022/04/16 08:54:55;;;;;;;;;;;;;;;;;;5040599;28;19967;-84
2022/04/16 08:57:21;;;;;;;;;;;;;;;;;;5029560;28;19995;-83
2022/04/16 08:59:47;;;;;;;;;;;;;;;;;;5029348;28;19960;-82
2022/04/16 09:02:13;;;;;;;;;;;;;;;;;;5027054;28;20349;-84
2022/04/16 09:04:39;;;;;;;;;;;;;;;;;;5022129;28;19945;-83
2022/04/16 09:07:06;;;;;;;;;;;;;;;;;;5019975;28;20382;-83
2022/04/16 09:09:32;;;;;;;;;;;;;;;;;;5020598;28;20404;-83
2022/04/16 09:11:58;;;;;;;;;;;;;;;;;;5026061;28;20261;-83
2022/04/16 09:14:24;;;;;;;;;;;;;;;;;;5036223;28;20381;-84
2022/04/16 09:16:50;;;;;;;;;;;;;;;;;;5062174;28;19952;-83
2022/04/16 09:19:17;;;;;;;;;;;;;;;;;;5021201;28;20389;-84
2022/04/16 09:21:43;;;;;;;;;;;;;;;;;;5021240;28;19961;-83
2022/04/16 09:24:10;;;;;;;;;;;;;;;;;;5050655;28;19968;-83
2022/04/16 09:26:36;;;;;;;;;;;;;;;;;;5020139;28;19945;-83
2022/04/16 09:29:02;;;;;;;;;;;;;;;;;;5071689;28;19955;-84
2022/04/16 09:31:28;;;;;;;;;;;;;;;;;;5020481;28;19949;-84
2022/04/16 09:33:55;;;;;;;;;;;;;;;;;;5049615;28;19952;-83
2022/04/16 09:36:21;;;;;;;;;;;;;;;;;;5055049;28;19963;-83
2022/04/16 09:38:47;;;;;;;;;;;;;;;;;;5024960;28;19984;-83
2022/04/16 09:41:13;;;;;;;;;;;;;;;;;;5022921;28;20004;-83
2022/04/16 09:43:40;;;;;;;;;;;;;;;;;;5032030;28;20406;-82
2022/04/16 09:46:06;;;;;;;;;;;;;;;;;;5051856;28;19913;-81
2022/04/16 09:48:32;;;;;;;;;;;;;;;;;;5029152;28;20373;-80
2022/04/16 09:50:58;;;;;;;;;;;;;;;;;;5026547;28;19925;-80
2022/04/16 09:53:24;;;;;;;;;;;;;;;;;;5008676;28;19914;-79
2022/04/16 09:55:51;;;;;;;;;;;;;;;;;;5019567;28;19963;-80
2022/04/16 09:58:17;;;;;;;;;;;;;;;;;;5022434;28;20354;-79
2022/04/16 10:00:43;;;;;;;;;;;;;;;;;;5032781;28;19953;-79
2022/04/16 10:03:09;;;;;;;;;;;;;;;;;;5029871;28;19956;-79
2022/04/16 10:05:36;;;;;;;;;;;;;;;;;;5026882;28;19948;-79
2022/04/16 10:08:02;;;;;;;;;;;;;;;;;;5028508;28;20010;-79
2022/04/16 10:10:36;;;;;;;;;;;;;;;;;;5028172;28;19918;-79
2022/04/16 10:13:07;;;;;;;;;;;;;;;;;;5023616;28;19917;-80
2022/04/16 10:15:33;;;;;;;;;;;;;;;;;;5020009;28;20351;-78
2022/04/16 10:17:59;;;;;;;;;;;;;;;;;;5054824;28;19952;-78
2022/04/16 10:20:26;;;;;;;;;;;;;;;;;;5024688;28;19963;-79
2022/04/16 10:22:52;;;;;;;;;;;;;;;;;;5024169;28;19917;-79
2022/04/16 10:25:18;;;;;;;;;;;;;;;;;;5031574;28;19964;-78
2022/04/16 10:27:44;;;;;;;;;;;;;;;;;;5020738;28;19945;-78
2022/04/16 10:30:11;;;;;;;;;;;;;;;;;;5032027;28;20374;-79
2022/04/16 10:32:38;;;;;;;;;;;;;;;;;;5022198;28;20325;-79
2022/04/16 10:35:05;;;;;;;;;;;;;;;;;;5024799;28;20006;-79
2022/04/16 10:37:31;;;;;;;;;;;;;;;;;;5058390;28;19951;-78
2022/04/16 10:39:57;;;;;;;;;;;;;;;;;;5051218;28;19983;-78
2022/04/16 10:42:23;;;;;;;;;;;;;;;;;;5027695;28;19964;-78
2022/04/16 10:44:50;;;;;;;;;;;;;;;;;;5025990;28;19917;-79
2022/04/16 10:47:16;;;;;;;;;;;;;;;;;;5063422;28;19917;-79
2022/04/16 10:49:42;;;;;;;;;;;;;;;;;;5046008;28;19975;-80
2022/04/16 10:52:08;;;;;;;;;;;;;;;;;;5036704;28;20343;-81
2022/04/16 10:54:35;;;;;;;;;;;;;;;;;;5059769;28;19944;-80
2022/04/16 10:57:01;;;;;;;;;;;;;;;;;;5032226;28;20343;-79
2022/04/16 10:59:27;;;;;;;;;;;;;;;;;;5029851;28;20057;-80
2022/04/16 11:01:58;;;;;;;;;;;;;;;;;;5014322;28;19921;-80
2022/04/16 11:04:24;;;;;;;;;;;;;;;;;;5023600;28;20403;-80
2022/04/16 11:06:51;;;;;;;;;;;;;;;;;;5049365;28;19953;-80
2022/04/16 11:09:18;;;;;;;;;;;;;;;;;;5049593;28;20015;-80
2022/04/16 11:11:44;;;;;;;;;;;;;;;;;;5017645;28;20341;-80
2022/04/16 11:14:10;;;;;;;;;;;;;;;;;;5024223;28;20078;-80
2022/04/16 11:16:37;;;;;;;;;;;;;;;;;;5054478;28;19945;-79
2022/04/16 11:19:03;;;;;;;;;;;;;;;;;;5023005;28;19953;-80
2022/04/16 11:21:29;;;;;;;;;;;;;;;;;;5016446;28;20338;-79
2022/04/16 11:23:55;;;;;;;;;;;;;;;;;;5015108;28;20023;-79
2022/04/16 11:34:36;;;;;;;;;;;;;;;;;;5009341;28;20381;-78
2022/04/16 11:37:03;;;;;;;;;;;;;;;;;;5017971;28;19961;-79
2022/04/16 11:39:34;;;;;;;;;;;;;;;;;;5049463;28;19949;-79
2022/04/16 11:42:00;;;;;;;;;;;;;;;;;;5017715;28;20276;-81
2022/04/16 11:44:26;;;;;;;;;;;;;;;;;;5024320;28;19952;-81
2022/04/16 11:46:53;;;;;;;;;;;;;;;;;;5056469;28;19952;-81
2022/04/16 11:49:19;;;;;;;;;;;;;;;;;;5020169;28;20377;-79
2022/04/16 11:51:45;;;;;;;;;;;;;;;;;;5025602;28;19952;-79
2022/04/16 11:54:11;;;;;;;;;;;;;;;;;;5023549;28;20369;-79
2022/04/16 11:56:38;;;;;;;;;;;;;;;;;;5017755;28;19948;-77
2022/04/16 11:59:04;;;;;;;;;;;;;;;;;;5030217;28;19940;-80
2022/04/16 12:01:30;;;;;;;;;;;;;;;;;;5027072;28;19948;-78
2022/04/16 12:03:56;;;;;;;;;;;;;;;;;;5033941;28;20502;-79
2022/04/16 12:06:23;;;;;;;;;;;;;;;;;;5036870;28;19913;-79
2022/04/16 12:08:49;;;;;;;;;;;;;;;;;;5028144;28;19964;-79
2022/04/16 12:11:15;;;;;;;;;;;;;;;;;;5021650;28;19949;-79
2022/04/16 12:13:41;;;;;;;;;;;;;;;;;;5031725;28;20409;-78
2022/04/16 12:16:08;;;;;;;;;;;;;;;;;;5026164;28;20453;-78
2022/04/16 12:18:34;;;;;;;;;;;;;;;;;;5028586;28;19917;-76
2022/04/16 12:21:00;;;;;;;;;;;;;;;;;;5022003;28;19956;-79
2022/04/16 12:23:26;;;;;;;;;;;;;;;;;;5014561;28;19964;-79
2022/04/16 12:25:52;;;;;;;;;;;;;;;;;;5036047;28;19949;-79
2022/04/16 12:28:19;;;;;;;;;;;;;;;;;;5029743;28;20393;-78
2022/04/16 12:30:45;;;;;;;;;;;;;;;;;;5028668;28;19949;-79
2022/04/16 12:33:11;;;;;;;;;;;;;;;;;;5065568;28;19964;-79
2022/04/16 12:35:37;;;;;;;;;;;;;;;;;;5029240;28;19959;-79
2022/04/16 12:38:03;;;;;;;;;;;;;;;;;;5025962;28;19917;-79
2022/04/16 12:40:30;;;;;;;;;;;;;;;;;;5028525;28;20293;-79
2022/04/16 12:42:59;;;;;;;;;;;;;;;;;;5022677;28;20472;-80
2022/04/16 12:45:25;;;;;;;;;;;;;;;;;;5014982;28;20377;-81
2022/04/16 12:47:51;;;;;;;;;;;;;;;;;;5015077;28;20014;-82
2022/04/16 12:50:17;;;;;;;;;;;;;;;;;;5015019;28;20003;-82
2022/04/16 12:52:43;;;;;;;;;;;;;;;;;;5013561;28;19983;-81
2022/04/16 12:55:10;;;;;;;;;;;;;;;;;;5017344;28;20362;-81
2022/04/16 12:57:36;;;;;;;;;;;;;;;;;;5013162;28;19945;-81
2022/04/16 13:00:02;;;;;;;;;;;;;;;;;;5030375;28;20018;-81
2022/04/16 13:02:28;;;;;;;;;;;;;;;;;;5030052;28;19982;-82
2022/04/16 13:04:55;;;;;;;;;;;;;;;;;;5024812;28;19964;-82
2022/04/16 13:07:21;;;;;;;;;;;;;;;;;;5025452;28;19949;-81
2022/04/16 13:09:47;;;;;;;;;;;;;;;;;;5029494;28;19956;-81
2022/04/16 13:12:13;;;;;;;;;;;;;;;;;;5036876;28;19956;-81
2022/04/16 13:14:43;;;;;;;;;;;;;;;;;;5019674;28;20356;-80
2022/04/16 13:17:10;;;;;;;;;;;;;;;;;;5020078;28;19940;-81
2022/04/16 13:19:36;;;;;;;;;;;;;;;;;;5026703;28;20329;-81
2022/04/16 13:22:02;;;;;;;;;;;;;;;;;;5024217;28;19944;-81
2022/04/16 13:24:29;;;;;;;;;;;;;;;;;;5056429;28;20428;-81
2022/04/16 13:26:57;;;;;;;;;;;;;;;;;;5027035;28;21566;-81
2022/04/16 13:29:23;;;;;;;;;;;;;;;;;;5033800;28;19968;-79
2022/04/16 13:31:49;;;;;;;;;;;;;;;;;;5015363;28;19960;-81
2022/04/16 13:34:15;;;;;;;;;;;;;;;;;;5026063;28;20374;-82
2022/04/16 13:36:41;;;;;;;;;;;;;;;;;;5033833;28;19947;-81
2022/04/16 13:41:37;;;;;;;;;;;;;;;;;;5030616;28;19948;-81
2022/04/16 13:41:57;;;;;;;;;;;;;;;;;;5028553;28;19956;-83
2022/04/16 13:44:23;;;;;;;;;;;;;;;;;;5023817;28;20019;-82
2022/04/16 13:46:53;;;;;;;;;;;;;;;;;;4991130;28;19914;-82
2022/04/16 13:49:19;;;;;;;;;;;;;;;;;;5050572;28;19960;-81
2022/04/16 13:51:45;;;;;;;;;;;;;;;;;;5025533;28;19913;-81
2022/04/16 13:54:11;;;;;;;;;;;;;;;;;;5028003;28;20350;-80
2022/04/16 13:56:38;;;;;;;;;;;;;;;;;;5032361;28;20389;-80
2022/04/16 13:59:04;;;;;;;;;;;;;;;;;;5029708;28;20011;-80
2022/04/16 14:01:30;;;;;;;;;;;;;;;;;;5026126;28;19956;-80
2022/04/16 14:03:56;;;;;;;;;;;;;;;;;;5019132;28;20457;-80
2022/04/16 14:06:22;;;;;;;;;;;;;;;;;;5061197;28;19955;-81
2022/04/16 14:08:49;;;;;;;;;;;;;;;;;;5010266;28;19972;-81
2022/04/16 14:11:15;;;;;;;;;;;;;;;;;;5022189;28;20243;-81
2022/04/16 14:13:41;;;;;;;;;;;;;;;;;;5057291;28;20007;-80
2022/04/16 14:16:10;;;;;;;;;;;;;;;;;;5048404;28;20448;-81
2022/04/16 14:18:36;;;;;;;;;;;;;;;;;;5023316;28;19968;-82
2022/04/16 14:21:02;;;;;;;;;;;;;;;;;;5033343;28;19975;-81
2022/04/16 14:23:28;;;;;;;;;;;;;;;;;;5039953;28;19967;-82
2022/04/16 14:25:54;;;;;;;;;;;;;;;;;;5024229;28;20342;-81
2022/04/16 14:28:21;;;;;;;;;;;;;;;;;;5032104;28;20346;-80
2022/04/16 14:30:47;;;;;;;;;;;;;;;;;;5038704;28;19969;-80
2022/04/16 14:33:13;;;;;;;;;;;;;;;;;;5019346;28;19973;-80
2022/04/16 14:35:40;;;;;;;;;;;;;;;;;;5018687;28;19965;-79
2022/04/16 14:38:11;;;;;;;;;;;;;;;;;;5027909;28;19948;-80
2022/04/16 14:40:37;;;;;;;;;;;;;;;;;;5030930;28;20003;-80
2022/04/16 14:43:06;;;;;;;;;;;;;;;;;;5033287;28;19948;-80
2022/04/16 14:45:32;;;;;;;;;;;;;;;;;;5034973;28;19917;-80
2022/04/16 14:48:00;;;;;;;;;;;;;;;;;;5032818;28;19959;-80
2022/04/16 14:50:26;;;;;;;;;;;;;;;;;;5053232;28;19956;-81
2022/04/16 14:52:53;;;;;;;;;;;;;;;;;;5069159;28;19957;-81
2022/04/16 14:55:19;;;;;;;;;;;;;;;;;;5061271;28;19949;-81
2022/04/16 14:57:45;;;;;;;;;;;;;;;;;;5033112;28;19945;-81
2022/04/16 15:00:11;;;;;;;;;;;;;;;;;;5026919;28;19952;-81
2022/04/16 15:02:40;;;;;;;;;;;;;;;;;;5075372;28;19913;-81
2022/04/16 15:05:07;;;;;;;;;;;;;;;;;;5022191;28;19956;-81
2022/04/16 15:07:33;;;;;;;;;;;;;;;;;;5030077;28;19945;-81
2022/04/16 15:09:59;;;;;;;;;;;;;;;;;;5021471;28;21330;-81
2022/04/16 15:12:26;;;;;;;;;;;;;;;;;;5036442;28;19960;-81
2022/04/16 15:14:52;;;;;;;;;;;;;;;;;;5029750;28;20381;-81
2022/04/16 15:17:24;;;;;;;;;;;;;;;;;;5067086;28;19948;-81
2022/04/16 15:19:50;;;;;;;;;;;;;;;;;;5020864;28;20383;-82
2022/04/16 15:22:17;;;;;;;;;;;;;;;;;;5020251;28;19999;-82
2022/04/16 15:24:43;;;;;;;;;;;;;;;;;;5024954;28;19961;-81
2022/04/16 15:27:10;;;;;;;;;;;;;;;;;;5054578;28;20026;-81
2022/04/16 15:29:36;;;;;;;;;;;;;;;;;;5050183;28;20011;-81
2022/04/16 15:32:02;;;;;;;;;;;;;;;;;;5041667;28;19918;-82
2022/04/16 15:34:28;;;;;;;;;;;;;;;;;;5026220;28;19983;-81
2022/04/16 15:36:55;;;;;;;;;;;;;;;;;;5017913;28;20022;-81
2022/04/16 15:39:23;;;;;;;;;;;;;;;;;;5042542;28;19945;-81
2022/04/16 15:41:49;;;;;;;;;;;;;;;;;;5024608;28;19976;-81
2022/04/16 15:44:16;;;;;;;;;;;;;;;;;;5033293;28;19956;-81
2022/04/16 15:46:42;;;;;;;;;;;;;;;;;;5028792;28;19944;-81
2022/04/16 15:49:08;;;;;;;;;;;;;;;;;;5034255;28;19924;-82
2022/04/16 15:51:34;;;;;;;;;;;;;;;;;;5037828;28;19967;-77
2022/04/16 15:54:00;;;;;;;;;;;;;;;;;;5030230;28;20047;-82
2022/04/16 15:56:27;;;;;;;;;;;;;;;;;;5018380;28;19944;-81
2022/04/16 15:58:53;;;;;;;;;;;;;;;;;;5030108;28;19967;-81
2022/04/16 16:01:19;;;;;;;;;;;;;;;;;;5023133;28;20007;-81
2022/04/16 16:03:45;;;;;;;;;;;;;;;;;;5028634;28;19960;-81
2022/04/16 16:06:11;;;;;;;;;;;;;;;;;;5026032;28;19952;-81
2022/04/16 16:08:38;;;;;;;;;;;;;;;;;;5029647;28;19953;-81
2022/04/16 16:11:04;;;;;;;;;;;;;;;;;;5027956;28;19964;-81
2022/04/16 16:13:30;;;;;;;;;;;;;;;;;;5051844;28;19960;-81
2022/04/16 16:15:57;;;;;;;;;;;;;;;;;;5051889;28;19964;-81
2022/04/16 16:18:23;;;;;;;;;;;;;;;;;;5016888;28;19956;-82
2022/04/16 16:20:50;;;;;;;;;;;;;;;;;;5015123;28;19952;-81
2022/04/16 16:23:16;;;;;;;;;;;;;;;;;;5028601;28;19956;-82
2022/04/16 16:25:42;;;;;;;;;;;;;;;;;;5028650;28;19956;-82
2022/04/16 16:28:08;;;;;;;;;;;;;;;;;;5020310;28;19960;-82
2022/04/16 16:30:35;;;;;;;;;;;;;;;;;;5028131;28;19963;-79
2022/04/16 16:33:01;;;;;;;;;;;;;;;;;;5030369;28;19957;-83
2022/04/16 16:35:28;;;;;;;;;;;;;;;;;;5016940;28;20369;-83
2022/04/16 16:37:55;;;;;;;;;;;;;;;;;;5014509;28;19972;-82
2022/04/16 16:40:25;;;;;;;;;;;;;;;;;;5032895;28;20432;-83
2022/04/16 16:42:51;;;;;;;;;;;;;;;;;;5027721;28;19913;-82
2022/04/16 16:45:17;;;;;;;;;;;;;;;;;;5038650;28;19963;-82
2022/04/16 16:47:43;;;;;;;;;;;;;;;;;;5022883;28;20331;-81
2022/04/16 16:50:09;;;;;;;;;;;;;;;;;;5031045;28;19965;-82
2022/04/16 16:52:36;;;;;;;;;;;;;;;;;;5025584;28;19952;-81
2022/04/16 16:55:02;;;;;;;;;;;;;;;;;;5032422;28;19959;-82
2022/04/16 16:57:29;;;;;;;;;;;;;;;;;;5022513;28;19991;-82
2022/04/16 16:59:55;;;;;;;;;;;;;;;;;;5063135;28;19960;-82
2022/04/16 17:05:06;;;;;;;;;;;;;;;;;;5025269;28;21336;-81
2022/04/16 17:07:32;;;;;;;;;;;;;;;;;;5058151;28;19963;-81
2022/04/16 17:09:59;;;;;;;;;;;;;;;;;;5014014;28;19961;-82